Time;durP1;ratioP1;P1;durP2;ratioP2;P2;SDS_P1;SDS_P2;PMS_P1;PMS_P2;Temp;Humidity;BMP_temperature;BMP_pressure;BME280_temperature;BME280_humidity;BME280_pressure;Samples;Min_cycle;Max_cycle;Signal;HPM_P1;HPM_P2
2024/01/16 00:01:39;;;;;;;12.77;9.32;;;;;;;-20.03;79.68;100464.00;4993944;28;20049;-60
2024/01/16 00:04:09;;;;;;;10.10;9.07;;;;;;;-19.86;79.58;100467.41;5000694;28;20111;-60
2024/01/16 00:06:43;;;;;;;19.48;9.02;;;;;;;-19.61;79.87;100466.72;4990698;28;20149;-60
2024/01/16 00:09:16;;;;;;;11.73;8.30;;;;;;;-19.32;79.92;100473.84;5003026;28;20045;-60
2024/01/16 00:11:47;;;;;;;10.25;8.38;;;;;;;-19.04;79.96;100474.19;4991451;28;20141;-60
2024/01/16 00:14:17;;;;;;;8.98;7.72;;;;;;;-18.81;79.74;100474.97;5000055;28;20156;-59
2024/01/16 00:16:49;;;;;;;9.95;7.80;;;;;;;-18.57;79.83;100475.63;4989211;28;20164;-60
2024/01/16 00:19:19;;;;;;;17.70;10.23;;;;;;;-18.29;79.51;100475.22;5000579;28;20128;-61
2024/01/16 00:21:51;;;;;;;18.35;9.68;;;;;;;-18.05;79.40;100476.75;4990404;28;20444;-60
2024/01/16 00:24:22;;;;;;;16.92;12.80;;;;;;;-17.93;78.63;100472.09;5003608;28;20049;-61
2024/01/16 00:26:52;;;;;;;22.70;13.35;;;;;;;-17.62;78.65;100470.06;5000290;28;20049;-59
2024/01/16 00:29:23;;;;;;;29.02;15.27;;;;;;;-17.35;78.46;100480.97;5010323;28;20063;-60
2024/01/16 00:31:54;;;;;;;18.55;11.45;;;;;;;-17.22;77.65;100488.91;5000303;28;20067;-61
2024/01/16 00:34:24;;;;;;;11.38;8.73;;;;;;;-16.99;77.26;100482.00;5010064;28;20064;-60
2024/01/16 00:36:56;;;;;;;15.80;8.40;;;;;;;-16.73;76.82;100483.53;4990795;28;20065;-60
2024/01/16 00:39:26;;;;;;;21.67;12.50;;;;;;;-16.49;76.66;100479.09;5003389;28;20059;-59
2024/01/16 00:41:57;;;;;;;23.15;8.20;;;;;;;-16.34;76.07;100481.41;4990172;28;20140;-60
2024/01/16 00:44:28;;;;;;;10.88;6.88;;;;;;;-16.19;75.73;100486.94;5000818;28;20741;-61
2024/01/16 00:46:58;;;;;;;8.23;5.57;;;;;;;-16.04;75.64;100492.47;4990284;28;20129;-60
2024/01/16 00:49:28;;;;;;;7.18;5.53;;;;;;;-15.89;75.24;100490.50;4999876;28;20463;-58
2024/01/16 00:52:00;;;;;;;6.40;5.13;;;;;;;-15.69;75.12;100488.13;4989911;28;20111;-61
2024/01/16 00:54:31;;;;;;;11.20;5.32;;;;;;;-15.52;74.69;100486.25;5000582;28;20081;-60
2024/01/16 00:57:01;;;;;;;8.00;4.80;;;;;;;-15.36;73.82;100494.41;4990161;28;20488;-60
2024/01/16 00:59:32;;;;;;;8.00;4.70;;;;;;;-15.15;73.66;100489.53;5001416;28;20115;-60
2024/01/16 01:02:03;;;;;;;5.93;4.60;;;;;;;-15.24;73.00;100444.50;4994787;28;20168;-60
2024/01/16 01:04:35;;;;;;;5.03;4.47;;;;;;;-14.81;72.23;100494.25;5000044;28;20392;-60
2024/01/16 01:07:08;;;;;;;6.68;4.30;;;;;;;-14.63;71.94;100487.44;4990097;28;20400;-58
2024/01/16 01:09:38;;;;;;;6.95;4.38;;;;;;;-14.56;70.62;100481.34;4989573;28;20053;-60
2024/01/16 01:12:09;;;;;;;4.90;4.40;;;;;;;-14.55;70.00;100478.06;5002980;28;20053;-59
2024/01/16 01:14:40;;;;;;;5.82;4.22;;;;;;;-14.55;68.60;100483.09;4989877;28;20377;-58
2024/01/16 01:17:10;;;;;;;4.43;4.03;;;;;;;-14.40;68.61;100474.34;5000343;28;20119;-60
2024/01/16 01:19:41;;;;;;;6.80;4.25;;;;;;;-14.28;67.74;100464.47;4989657;28;20488;-60
2024/01/16 01:22:13;;;;;;;5.18;4.38;;;;;;;-14.12;67.54;100466.66;5005963;28;20049;-59
2024/01/16 01:24:43;;;;;;;9.48;4.47;;;;;;;-13.94;67.64;100470.69;4995177;28;20527;-58
2024/01/16 01:27:14;;;;;;;5.47;4.20;;;;;;;-13.88;66.37;100467.81;5010843;28;20684;-60
2024/01/16 01:29:44;;;;;;;4.20;3.88;;;;;;;-13.76;66.36;100457.91;5002416;28;20497;-59
2024/01/16 01:32:15;;;;;;;4.07;3.67;;;;;;;-13.74;65.24;100453.88;5007100;28;20050;-60
2024/01/16 01:34:45;;;;;;;5.88;4.05;;;;;;;-13.62;65.26;100452.38;4992946;28;20053;-59
2024/01/16 01:37:17;;;;;;;5.10;4.18;;;;;;;-13.50;64.85;100460.94;5010247;28;20085;-60
2024/01/16 01:39:47;;;;;;;4.00;3.60;;;;;;;-13.44;64.09;100463.06;5002273;28;20122;-60
2024/01/16 01:42:18;;;;;;;6.57;3.95;;;;;;;-13.41;63.89;100457.41;5003422;28;20059;-58
2024/01/16 01:44:48;;;;;;;4.63;3.70;;;;;;;-13.34;63.88;100449.59;4993212;28;20092;-59
2024/01/16 01:47:19;;;;;;;4.82;3.78;;;;;;;-13.19;63.30;100460.00;5003999;28;20049;-58
2024/01/16 01:49:50;;;;;;;5.13;3.60;;;;;;;-13.13;62.88;100450.41;4992955;28;20873;-58
2024/01/16 01:52:22;;;;;;;3.50;3.30;;;;;;;-13.20;61.71;100448.16;5003288;28;20132;-58
2024/01/16 01:54:53;;;;;;;3.97;3.13;;;;;;;-13.18;61.13;100447.53;4993819;28;20045;-58
2024/01/16 01:57:24;;;;;;;4.35;3.75;;;;;;;-13.17;60.96;100444.28;5003415;28;20124;-60
2024/01/16 01:59:55;;;;;;;4.63;4.00;;;;;;;-13.28;60.47;100445.06;4993521;28;21040;-58
2024/01/16 02:02:26;;;;;;;4.20;3.80;;;;;;;-13.43;60.15;100446.34;5003625;28;20367;-59
2024/01/16 02:04:56;;;;;;;3.83;3.53;;;;;;;-13.43;60.50;100438.78;4991790;28;20767;-59
2024/01/16 02:07:29;;;;;;;5.30;4.22;;;;;;;-13.35;61.02;100437.78;5003143;28;20133;-60
2024/01/16 02:10:02;;;;;;;5.00;4.40;;;;;;;-13.30;60.16;100439.06;4992867;28;20054;-58
2024/01/16 02:12:32;;;;;;;5.60;3.60;;;;;;;-13.29;59.92;100433.25;5006799;28;20539;-58
2024/01/16 02:15:03;;;;;;;4.03;3.38;;;;;;;-13.25;60.37;100425.19;4986886;28;20059;-59
2024/01/16 02:17:33;;;;;;;6.32;3.72;;;;;;;-13.19;59.95;100424.78;5013823;28;20132;-62
2024/01/16 02:20:04;;;;;;;5.90;4.30;;;;;;;-13.11;59.86;100424.63;4996763;28;20574;-58
2024/01/16 02:22:39;;;;;;;4.15;3.75;;;;;;;-13.02;59.55;100432.03;5002527;28;20057;-59
2024/01/16 02:25:11;;;;;;;6.38;3.85;;;;;;;-13.02;59.12;100413.56;4993130;28;20636;-58
2024/01/16 02:27:42;;;;;;;4.47;3.72;;;;;;;-13.00;59.32;100417.94;4992698;28;20057;-59
2024/01/16 02:30:13;;;;;;;5.10;3.63;;;;;;;-12.88;59.92;100423.06;5002590;28;20136;-59
2024/01/16 02:32:44;;;;;;;5.97;4.10;;;;;;;-12.70;59.68;100423.59;4992604;28;20435;-59
2024/01/16 02:35:15;;;;;;;5.03;3.78;;;;;;;-12.66;59.46;100426.50;5002958;28;20541;-59
2024/01/16 02:37:45;;;;;;;3.78;3.45;;;;;;;-12.57;59.25;100415.41;4992538;28;20136;-59
2024/01/16 02:40:18;;;;;;;3.85;3.55;;;;;;;-12.50;59.00;100417.59;5001707;28;20049;-61
2024/01/16 02:42:48;;;;;;;3.50;3.20;;;;;;;-12.56;57.72;100417.16;4992443;28;20089;-60
2024/01/16 02:45:19;;;;;;;4.35;3.60;;;;;;;-12.65;57.70;100413.16;5001970;28;20057;-60
2024/01/16 02:47:49;;;;;;;4.53;3.85;;;;;;;-12.58;58.36;100413.63;4992576;28;20061;-58
2024/01/16 02:50:21;;;;;;;3.97;3.40;;;;;;;-12.48;58.58;100421.13;5002918;28;21278;-60
2024/01/16 02:52:51;;;;;;;6.10;3.60;;;;;;;-12.43;58.78;100420.75;5001435;28;20361;-59
2024/01/16 02:55:23;;;;;;;3.50;3.13;;;;;;;-12.34;58.72;100419.69;5004783;28;20071;-59
2024/01/16 02:57:54;;;;;;;5.78;3.80;;;;;;;-12.30;59.13;100417.53;4991995;28;20045;-60
2024/01/16 03:00:24;;;;;;;3.70;3.40;;;;;;;-12.26;58.52;100419.50;5004899;28;20115;-59
2024/01/16 03:02:55;;;;;;;5.57;3.42;;;;;;;-12.24;58.40;100397.81;4991679;28;20077;-60
2024/01/16 03:05:25;;;;;;;4.10;3.47;;;;;;;-12.30;57.71;100404.94;5001477;28;20049;-59
2024/01/16 03:07:56;;;;;;;8.38;3.83;;;;;;;-12.32;58.27;100398.91;5000388;28;20049;-60
2024/01/16 03:10:28;;;;;;;6.82;3.72;;;;;;;-12.29;58.32;100399.13;5006498;28;21268;-58
2024/01/16 03:12:58;;;;;;;6.13;3.58;;;;;;;-12.21;58.15;100387.09;4990971;28;20133;-59
2024/01/16 03:15:30;;;;;;;4.18;3.30;;;;;;;-12.12;58.36;100397.00;5003160;28;20143;-58
2024/01/16 03:18:01;;;;;;;5.15;3.40;;;;;;;-12.10;58.09;100395.47;4995187;28;20045;-59
2024/01/16 03:20:32;;;;;;;4.30;3.47;;;;;;;-12.14;58.02;100393.50;5002384;28;20709;-59
2024/01/16 03:23:04;;;;;;;6.65;3.67;;;;;;;-12.06;58.03;100392.41;4997590;28;20044;-59
2024/01/16 03:25:38;;;;;;;5.03;3.67;;;;;;;-11.93;58.51;100385.00;5003929;28;20057;-60
2024/01/16 03:28:10;;;;;;;7.13;3.40;;;;;;;-11.78;59.18;100386.13;4985832;28;20110;-58
2024/01/16 03:30:40;;;;;;;3.38;3.13;;;;;;;-11.72;59.01;100375.63;4996840;28;20172;-60
2024/01/16 03:33:11;;;;;;;6.78;3.80;;;;;;;-11.64;59.60;100373.66;5001449;28;20071;-59
2024/01/16 03:35:41;;;;;;;5.85;3.53;;;;;;;-11.59;58.77;100372.34;4991571;28;20091;-57
2024/01/16 03:38:12;;;;;;;6.28;3.50;;;;;;;-11.61;58.36;100368.84;5005189;28;20737;-59
2024/01/16 03:40:44;;;;;;;2.97;2.78;;;;;;;-11.75;57.51;100366.19;4990973;28;20073;-59
2024/01/16 03:43:15;;;;;;;3.55;3.25;;;;;;;-11.78;57.77;100360.94;4999304;28;20064;-60
2024/01/16 03:45:45;;;;;;;5.35;3.85;;;;;;;-11.77;57.62;100350.06;4990428;28;20601;-58
2024/01/16 03:48:16;;;;;;;5.43;3.60;;;;;;;-11.82;58.19;100348.88;5002078;28;20140;-60
2024/01/16 03:50:47;;;;;;;5.28;3.25;;;;;;;-11.91;58.64;100348.22;4991916;28;20389;-59
2024/01/16 03:53:17;;;;;;;4.63;3.35;;;;;;;-11.92;59.07;100341.44;5000253;28;20064;-60
2024/01/16 03:55:50;;;;;;;5.93;3.17;;;;;;;-11.89;58.85;100345.81;4990573;28;20053;-59
2024/01/16 03:58:20;;;;;;;4.88;3.35;;;;;;;-11.92;59.08;100349.00;4999950;28;20492;-60
2024/01/16 04:00:51;;;;;;;7.15;3.40;;;;;;;-11.97;58.82;100342.72;4990519;28;20140;-60
2024/01/16 04:03:21;;;;;;;4.10;3.28;;;;;;;-11.92;59.15;100331.34;5000438;28;20064;-60
2024/01/16 04:05:52;;;;;;;4.68;3.40;;;;;;;-11.83;59.04;100321.91;4991381;28;20059;-59
2024/01/16 04:08:22;;;;;;;3.60;3.30;;;;;;;-11.77;59.13;100326.53;5004100;28;20045;-59
2024/01/16 04:10:54;;;;;;;4.45;3.30;;;;;;;-11.83;59.39;100326.97;4990325;28;20099;-60
2024/01/16 04:13:25;;;;;;;3.50;3.00;;;;;;;-11.94;59.67;100327.84;5007953;28;20459;-61
2024/01/16 04:15:55;;;;;;;4.70;3.30;;;;;;;-11.93;59.80;100332.09;4995980;28;20158;-58
2024/01/16 04:18:25;;;;;;;3.85;3.25;;;;;;;-11.98;59.76;100335.91;5010143;28;20748;-60
2024/01/16 04:20:58;;;;;;;3.70;3.22;;;;;;;-11.98;59.32;100325.84;4996670;28;20055;-60
2024/01/16 04:23:28;;;;;;;3.63;2.88;;;;;;;-11.85;59.87;100332.66;5010842;28;20060;-59
2024/01/16 04:26:00;;;;;;;5.25;3.15;;;;;;;-11.99;60.03;100349.28;4991079;28;20061;-59
2024/01/16 04:28:31;;;;;;;3.78;3.03;;;;;;;-12.04;61.60;100325.41;5000512;28;20084;-58
2024/01/16 04:31:02;;;;;;;5.15;3.35;;;;;;;-11.99;61.10;100339.22;4994404;28;20069;-59
2024/01/16 04:33:32;;;;;;;3.47;2.97;;;;;;;-11.93;61.04;100329.56;5000180;28;20139;-58
2024/01/16 04:36:03;;;;;;;5.45;3.10;;;;;;;-11.90;60.81;100344.94;4982436;28;20049;-60
2024/01/16 04:38:33;;;;;;;3.70;3.22;;;;;;;-12.20;61.68;100296.56;5000409;28;20053;-59
2024/01/16 04:41:06;;;;;;;5.00;3.10;;;;;;;-11.97;61.71;100353.69;5000396;28;20055;-60
2024/01/16 04:43:36;;;;;;;3.40;3.10;;;;;;;-12.06;61.47;100357.16;5010272;28;21107;-58
2024/01/16 04:46:07;;;;;;;4.40;3.25;;;;;;;-12.25;62.01;100358.31;4984143;28;20057;-59
2024/01/16 04:48:37;;;;;;;3.47;3.10;;;;;;;-12.33;62.44;100371.94;5010049;28;20783;-58
2024/01/16 04:51:09;;;;;;;4.53;3.45;;;;;;;-12.40;62.92;100360.53;4981028;28;20487;-59
2024/01/16 04:53:40;;;;;;;3.42;3.05;;;;;;;-12.40;63.69;100369.75;4993802;28;20167;-58
2024/01/16 04:56:12;;;;;;;5.78;3.55;;;;;;;-12.29;62.69;100358.81;4997979;28;20548;-59
2024/01/16 04:58:43;;;;;;;6.32;3.30;;;;;;;-12.28;61.83;100360.59;4987821;28;20435;-59
2024/01/16 05:01:15;;;;;;;4.88;3.47;;;;;;;-12.14;61.21;100368.31;5002996;28;20469;-60
2024/01/16 05:03:45;;;;;;;3.88;3.35;;;;;;;-12.09;61.58;100365.38;4993282;28;20061;-60
2024/01/16 05:06:16;;;;;;;5.40;3.40;;;;;;;-11.94;61.66;100363.09;5003926;28;20126;-59
2024/01/16 05:08:47;;;;;;;5.82;3.55;;;;;;;-11.77;61.44;100367.72;4993984;28;20139;-59
2024/01/16 05:11:20;;;;;;;6.43;4.07;;;;;;;-11.58;60.97;100376.63;5004384;28;20058;-60
2024/01/16 05:13:56;;;;;;;3.83;3.45;;;;;;;-11.52;61.19;100379.59;4994144;28;20057;-59
2024/01/16 05:16:27;;;;;;;4.13;3.40;;;;;;;-11.63;62.76;100380.44;5003956;28;20054;-60
2024/01/16 05:18:57;;;;;;;4.32;3.20;;;;;;;-11.76;61.54;100388.75;4999284;28;20387;-60
2024/01/16 05:21:28;;;;;;;5.60;3.20;;;;;;;-12.38;62.21;100302.72;5009532;28;20539;-59
2024/01/16 05:23:58;;;;;;;3.95;3.00;;;;;;;-11.84;61.98;100400.78;4994073;28;20129;-60
2024/01/16 05:26:30;;;;;;;5.70;3.25;;;;;;;-11.67;62.11;100408.75;5003312;28;20045;-60
2024/01/16 05:29:01;;;;;;;3.97;3.20;;;;;;;-11.54;62.42;100411.38;4997532;28;20073;-58
2024/01/16 05:31:31;;;;;;;6.15;3.63;;;;;;;-11.49;61.65;100417.66;5003876;28;20053;-60
2024/01/16 05:34:02;;;;;;;5.95;3.60;;;;;;;-11.53;62.06;100419.06;5000191;28;20066;-60
2024/01/16 05:36:32;;;;;;;5.68;3.50;;;;;;;-11.49;61.93;100430.25;5009823;28;20049;-60
2024/01/16 05:39:03;;;;;;;7.38;3.10;;;;;;;-11.60;61.91;100436.16;4979121;28;20049;-59
2024/01/16 05:41:37;;;;;;;4.10;3.08;;;;;;;-11.67;61.77;100439.00;5014321;28;20095;-60
2024/01/16 05:44:08;;;;;;;7.88;3.10;;;;;;;-11.62;62.59;100440.19;4987565;28;20046;-60
2024/01/16 05:46:38;;;;;;;4.82;3.20;;;;;;;-11.63;62.57;100440.94;5001546;28;20072;-60
2024/01/16 05:49:08;;;;;;;3.40;2.83;;;;;;;-11.73;61.89;100457.03;4999449;28;20084;-60
2024/01/16 05:51:39;;;;;;;4.32;2.90;;;;;;;-11.81;62.49;100458.97;4988867;28;20049;-60
2024/01/16 05:54:09;;;;;;;3.70;3.15;;;;;;;-12.05;62.37;100450.50;5008797;28;20052;-60
2024/01/16 05:56:41;;;;;;;4.07;3.53;;;;;;;-12.07;62.99;100466.25;5002489;28;20115;-60
2024/01/16 05:59:12;;;;;;;3.72;3.20;;;;;;;-12.27;63.26;100483.22;5007020;28;20053;-59
2024/01/16 06:01:43;;;;;;;5.35;3.70;;;;;;;-12.46;63.45;100485.06;4992884;28;20056;-60
2024/01/16 06:04:13;;;;;;;4.50;3.33;;;;;;;-12.63;63.57;100489.69;5002598;28;20065;-59
2024/01/16 06:06:45;;;;;;;6.38;3.50;;;;;;;-12.71;63.62;100488.16;4996469;28;20904;-59
2024/01/16 06:09:15;;;;;;;7.45;3.85;;;;;;;-12.78;63.80;100488.44;5006459;28;20598;-61
2024/01/16 06:11:47;;;;;;;4.63;3.30;;;;;;;-12.78;64.30;100500.16;4992901;28;20096;-60
2024/01/16 06:14:21;;;;;;;3.47;3.17;;;;;;;-12.78;64.66;100500.16;5001048;28;20049;-60
2024/01/16 06:16:52;;;;;;;5.35;3.75;;;;;;;-12.87;65.14;100505.34;4992477;28;20065;-61
2024/01/16 06:19:22;;;;;;;8.00;3.63;;;;;;;-12.99;65.47;100504.34;5002987;28;20128;-59
2024/01/16 06:21:53;;;;;;;4.30;3.42;;;;;;;-13.10;65.98;100509.41;4992517;28;20060;-60
2024/01/16 06:24:23;;;;;;;4.28;2.90;;;;;;;-13.18;66.32;100512.91;5005997;28;20494;-59
2024/01/16 06:26:55;;;;;;;3.90;3.40;;;;;;;-13.27;66.63;100507.19;4998045;28;20057;-61
2024/01/16 06:29:26;;;;;;;3.55;3.25;;;;;;;-13.39;66.53;100528.78;5005933;28;20085;-61
2024/01/16 06:32:03;;;;;;;4.93;3.45;;;;;;;-13.53;67.01;100543.59;4992922;28;20049;-60
2024/01/16 06:34:34;;;;;;;4.97;3.78;;;;;;;-13.54;67.53;100536.81;5002200;28;20049;-58
2024/01/16 06:37:04;;;;;;;3.85;3.45;;;;;;;-13.55;67.62;100542.63;4992377;28;20392;-60
2024/01/16 06:39:35;;;;;;;4.45;3.38;;;;;;;-13.64;67.50;100549.38;5002638;28;20049;-59
2024/01/16 06:42:07;;;;;;;6.13;3.67;;;;;;;-13.82;67.64;100547.84;4992424;28;20859;-60
2024/01/16 06:44:40;;;;;;;7.15;3.25;;;;;;;-13.94;68.03;100553.56;4992460;28;20038;-58
2024/01/16 06:47:10;;;;;;;4.13;3.50;;;;;;;-14.00;68.58;100548.03;5002278;28;20104;-60
2024/01/16 06:49:41;;;;;;;4.05;3.42;;;;;;;-14.92;68.69;100419.75;4992537;28;20057;-58
2024/01/16 06:52:11;;;;;;;6.45;3.90;;;;;;;-14.25;69.26;100551.69;5002226;28;20439;-60
2024/01/16 06:54:41;;;;;;;6.60;4.10;;;;;;;-14.34;69.67;100560.19;4992127;28;20057;-60
2024/01/16 06:57:14;;;;;;;5.03;4.10;;;;;;;-14.39;70.00;100566.44;5001753;28;20049;-61
2024/01/16 06:59:44;;;;;;;6.50;3.75;;;;;;;-14.50;70.53;100556.22;4991418;28;20053;-61
2024/01/16 07:02:14;;;;;;;4.50;3.65;;;;;;;-14.46;70.56;100569.16;5002312;28;20123;-60
2024/01/16 07:04:45;;;;;;;6.38;3.70;;;;;;;-14.50;70.93;100567.16;4991268;28;20459;-61
2024/01/16 07:07:15;;;;;;;4.88;3.47;;;;;;;-14.57;71.15;100577.44;5001832;28;20128;-61
2024/01/16 07:09:47;;;;;;;14.05;7.25;;;;;;;-14.67;71.45;100577.38;4991906;28;20063;-59
2024/01/16 07:12:19;;;;;;;19.60;8.23;;;;;;;-14.82;71.62;100562.75;5001503;28;20057;-61
2024/01/16 07:14:50;;;;;;;15.82;8.07;;;;;;;-14.94;72.26;100571.69;4990431;28;20146;-60
2024/01/16 07:17:21;;;;;;;8.30;4.90;;;;;;;-14.98;72.58;100569.63;5001717;28;20057;-60
2024/01/16 07:19:51;;;;;;;7.85;4.43;;;;;;;-15.07;73.15;100563.81;4991734;28;20053;-60
2024/01/16 07:22:22;;;;;;;6.68;4.07;;;;;;;-15.45;73.47;100513.63;5001899;28;21186;-59
2024/01/16 07:24:52;;;;;;;4.70;3.90;;;;;;;-15.18;74.06;100561.97;4998569;28;20045;-59
2024/01/16 07:27:24;;;;;;;4.97;3.50;;;;;;;-15.25;74.11;100568.03;5007346;28;20081;-58
2024/01/16 07:29:55;;;;;;;6.55;4.07;;;;;;;-15.35;74.40;100571.34;4992662;28;20880;-59
2024/01/16 07:32:25;;;;;;;7.20;4.28;;;;;;;-15.45;74.46;100563.72;5011219;28;20136;-58
2024/01/16 07:34:58;;;;;;;4.25;3.85;;;;;;;-15.62;74.37;100568.81;4995491;28;21849;-60
2024/01/16 07:37:28;;;;;;;10.35;4.57;;;;;;;-15.76;74.79;100572.63;5004503;28;20087;-59
2024/01/16 07:39:59;;;;;;;5.15;4.45;;;;;;;-15.88;75.46;100574.88;4991221;28;20050;-59
2024/01/16 07:42:34;;;;;;;10.25;5.47;;;;;;;-16.02;76.01;100576.09;5001254;28;20058;-58
2024/01/16 07:45:05;;;;;;;6.95;5.60;;;;;;;-16.18;76.66;100583.78;4981083;28;20053;-60
2024/01/16 07:47:36;;;;;;;7.03;5.30;;;;;;;-16.31;77.65;100585.88;5010284;28;20046;-56
2024/01/16 07:50:08;;;;;;;16.48;9.70;;;;;;;-16.42;78.25;100586.47;4985096;28;20049;-58
2024/01/16 07:52:39;;;;;;;18.88;9.98;;;;;;;-16.57;78.66;100581.78;4999437;28;20135;-60
2024/01/16 07:55:09;;;;;;;9.77;6.50;;;;;;;-16.63;79.14;100580.31;5006866;28;20053;-61
2024/01/16 07:57:41;;;;;;;20.35;10.20;;;;;;;-16.80;79.32;100586.22;4992790;28;20072;-59
2024/01/16 08:00:13;;;;;;;12.18;7.47;;;;;;;-16.86;79.51;100590.66;5003407;28;20049;-61
2024/01/16 08:02:43;;;;;;;7.60;6.00;;;;;;;-16.99;79.50;100594.47;5000102;28;20060;-59
2024/01/16 08:05:14;;;;;;;7.32;5.57;;;;;;;-17.03;79.63;100606.50;4995481;28;20059;-60
2024/01/16 08:07:45;;;;;;;16.75;9.80;;;;;;;-17.01;80.48;100600.91;4996071;28;20045;-60
2024/01/16 08:10:15;;;;;;;7.93;5.80;;;;;;;-16.84;80.76;100612.56;5004248;28;20057;-59
2024/01/16 08:12:49;;;;;;;6.32;4.60;;;;;;;-16.80;80.43;100606.22;4995075;28;20053;-60
2024/01/16 08:15:20;;;;;;;5.78;3.97;;;;;;;-16.91;79.59;100611.81;4999530;28;20112;-58
2024/01/16 08:17:50;;;;;;;6.05;4.00;;;;;;;-17.00;79.50;100607.66;4988821;28;20081;-60
2024/01/16 08:20:21;;;;;;;5.90;3.78;;;;;;;-17.06;78.90;100627.06;5000055;28;20056;-61
2024/01/16 08:22:52;;;;;;;7.38;4.63;;;;;;;-17.10;78.83;100620.00;4994242;28;20103;-59
2024/01/16 08:25:22;;;;;;;12.15;5.78;;;;;;;-17.22;78.63;100623.78;5005998;28;20048;-61
2024/01/16 08:27:54;;;;;;;14.02;7.80;;;;;;;-17.44;78.20;100631.69;4999236;28;20215;-59
2024/01/16 08:30:25;;;;;;;22.50;9.07;;;;;;;-17.56;78.52;100639.56;5010213;28;20064;-58
2024/01/16 08:32:55;;;;;;;27.65;8.93;;;;;;;-17.54;78.75;100644.00;4999488;28;20059;-60
2024/01/16 08:35:26;;;;;;;17.27;7.00;;;;;;;-17.60;78.76;100648.34;5001124;28;20129;-60
2024/01/16 08:37:56;;;;;;;11.63;5.85;;;;;;;-17.65;78.70;100652.00;4989687;28;20068;-59
2024/01/16 08:40:27;;;;;;;6.60;5.50;;;;;;;-17.48;79.32;100648.69;5000010;28;20049;-60
2024/01/16 08:42:59;;;;;;;8.02;4.97;;;;;;;-17.27;79.29;100664.94;4990318;28;20054;-59
2024/01/16 08:45:29;;;;;;;4.93;4.03;;;;;;;-17.30;78.91;100654.63;5000390;28;20064;-57
2024/01/16 08:48:00;;;;;;;8.15;4.95;;;;;;;-17.40;78.54;100663.69;4984747;28;20795;-61
2024/01/16 08:50:31;;;;;;;6.18;3.92;;;;;;;-17.65;77.63;100664.47;5000372;28;20049;-59
2024/01/16 08:53:02;;;;;;;11.95;7.57;;;;;;;-17.80;78.18;100662.97;4990482;28;20051;-61
2024/01/16 08:55:32;;;;;;;8.90;5.80;;;;;;;-17.90;78.40;100662.03;5008316;28;20059;-59
2024/01/16 08:58:05;;;;;;;10.60;5.55;;;;;;;-17.91;78.87;100655.28;4990628;28;20369;-59
2024/01/16 09:00:35;;;;;;;43.10;15.88;;;;;;;-17.90;79.41;100662.03;5000832;28;20842;-60
2024/01/16 09:03:07;;;;;;;83.55;23.77;;;;;;;-18.06;79.04;100661.22;4984214;28;20060;-59
2024/01/16 09:05:38;;;;;;;7.75;5.82;;;;;;;-18.22;79.24;100665.34;5009207;28;20065;-60
2024/01/16 09:08:09;;;;;;;21.45;11.38;;;;;;;-18.37;79.26;100660.53;5004109;28;20137;-61
2024/01/16 09:10:42;;;;;;;80.60;30.30;;;;;;;-18.55;79.63;100663.63;4997606;28;20411;-60
2024/01/16 09:13:14;;;;;;;28.55;14.93;;;;;;;-18.56;79.79;100656.88;5006193;28;20067;-60
2024/01/16 09:15:46;;;;;;;16.30;9.32;;;;;;;-18.51;80.29;100665.72;4999661;28;20068;-58
2024/01/16 09:18:17;;;;;;;10.85;7.40;;;;;;;-18.41;80.90;100663.47;5006801;28;20057;-59
2024/01/16 09:20:48;;;;;;;19.55;10.82;;;;;;;-18.28;81.22;100666.47;4990537;28;20397;-61
2024/01/16 09:23:18;;;;;;;8.88;5.13;;;;;;;-18.31;80.60;100677.78;5003362;28;20488;-60
2024/01/16 09:25:49;;;;;;;8.93;5.68;;;;;;;-18.11;80.81;100669.84;4989780;28;20637;-60
2024/01/16 09:28:21;;;;;;;7.47;5.72;;;;;;;-18.14;80.01;100674.50;4999750;28;20061;-58
2024/01/16 09:30:52;;;;;;;9.50;5.20;;;;;;;-18.29;79.19;100669.72;4990115;28;20057;-61
2024/01/16 09:33:22;;;;;;;24.67;9.65;;;;;;;-18.65;78.05;100675.88;5003091;28;20613;-62
2024/01/16 09:35:53;;;;;;;31.60;12.70;;;;;;;-18.82;78.43;100667.53;4997873;28;20045;-60
2024/01/16 09:38:23;;;;;;;42.40;16.90;;;;;;;-18.70;79.18;100673.75;5000267;28;20060;-59
2024/01/16 09:40:58;;;;;;;32.85;15.60;;;;;;;-18.71;79.22;100669.50;4989517;28;20395;-60
2024/01/16 09:43:31;;;;;;;74.07;30.88;;;;;;;-18.93;78.85;100678.84;5003729;28;20053;-60
2024/01/16 09:46:03;;;;;;;41.17;16.40;;;;;;;-19.22;78.90;100663.31;4992377;28;20472;-60
2024/01/16 09:48:33;;;;;;;57.97;21.83;;;;;;;-19.12;79.44;100685.09;5006860;28;20431;-59
2024/01/16 09:51:04;;;;;;;61.65;21.70;;;;;;;-19.08;79.81;100691.31;4991922;28;20566;-59
2024/01/16 09:53:35;;;;;;;233.60;51.60;;;;;;;-19.17;79.95;100696.19;5005965;28;20045;-59
2024/01/16 09:56:10;;;;;;;122.55;33.10;;;;;;;-19.39;80.03;100688.00;4987296;28;20076;-62
2024/01/16 09:58:44;;;;;;;149.70;36.08;;;;;;;-19.32;80.63;100690.44;4997194;28;20053;-61
2024/01/16 10:01:15;;;;;;;194.98;65.20;;;;;;;-19.25;80.86;100696.97;5002977;28;20139;-60
2024/01/16 10:03:47;;;;;;;100.70;40.00;;;;;;;-19.29;80.76;100690.78;4992534;28;20072;-59
2024/01/16 10:06:22;;;;;;;36.67;17.20;;;;;;;-19.29;80.27;100710.72;5005473;28;20404;-62
2024/01/16 10:08:53;;;;;;;22.27;12.32;;;;;;;-19.43;80.17;100705.84;5003178;28;20052;-59
2024/01/16 10:11:23;;;;;;;21.27;13.35;;;;;;;-19.45;80.23;100712.25;5006395;28;20057;-61
2024/01/16 10:13:56;;;;;;;17.45;10.15;;;;;;;-19.42;80.14;100705.09;4992599;28;20496;-60
2024/01/16 10:17:02;;;;;;;11.45;7.65;;;;;;;-19.28;79.94;100712.47;5010094;28;20068;-61
2024/01/16 10:19:33;;;;;;;5.53;5.03;;;;;;;-19.42;79.10;100697.63;5002517;28;20056;-61
2024/01/16 10:22:22;;;;;;;7.20;5.88;;;;;;;-19.39;78.79;100708.81;4992480;28;20049;-61
2024/01/16 10:25:07;;;;;;;6.30;5.53;;;;;;;-19.41;78.29;100734.28;4997613;28;20570;-60
2024/01/16 10:27:38;;;;;;;36.42;12.68;;;;;;;-19.62;78.66;100720.38;5010912;28;20060;-58
2024/01/16 10:30:11;;;;;;;27.33;11.45;;;;;;;-19.68;79.57;100720.63;4992475;28;20108;-59
2024/01/16 10:32:43;;;;;;;13.35;7.25;;;;;;;-19.69;79.86;100726.34;4991590;28;20100;-60
2024/01/16 10:35:15;;;;;;;9.52;7.35;;;;;;;-19.66;80.27;100710.81;5003250;28;20061;-60
2024/01/16 10:37:48;;;;;;;17.77;10.73;;;;;;;-19.60;80.55;100712.34;4991973;28;20154;-59
2024/01/16 10:40:19;;;;;;;7.78;6.97;;;;;;;-19.54;80.56;100726.16;5001666;28;20049;-60
2024/01/16 10:43:04;;;;;;;5.75;5.25;;;;;;;-19.57;81.04;100737.56;4990961;28;20619;-59
2024/01/16 10:45:36;;;;;;;6.15;5.65;;;;;;;-19.53;81.43;100732.94;5001965;28;20115;-58
2024/01/16 10:48:08;;;;;;;6.13;5.50;;;;;;;-19.90;81.43;100675.09;4991672;28;20058;-58
2024/01/16 10:50:40;;;;;;;10.80;6.45;;;;;;;-19.22;82.21;100728.03;4993094;28;20049;-60
2024/01/16 10:53:11;;;;;;;9.23;6.90;;;;;;;-18.99;82.15;100742.09;5001345;28;20079;-59
2024/01/16 10:55:51;;;;;;;10.32;5.00;;;;;;;-18.89;81.68;100744.88;4992357;28;20057;-59
2024/01/16 10:58:25;;;;;;;8.45;6.20;;;;;;;-18.95;80.82;100749.16;5001279;28;20053;-59
2024/01/16 11:00:59;;;;;;;16.23;7.35;;;;;;;-19.15;79.51;100745.41;4990723;28;20050;-60
2024/01/16 11:03:37;;;;;;;18.15;8.00;;;;;;;-19.68;78.32;100693.25;5002231;28;20049;-59
2024/01/16 11:06:09;;;;;;;11.10;6.05;;;;;;;-19.53;77.55;100732.94;4990882;28;20056;-59
2024/01/16 11:08:40;;;;;;;16.40;7.03;;;;;;;-19.53;76.61;100752.84;4993462;28;20053;-60
2024/01/16 11:11:11;;;;;;;12.35;7.00;;;;;;;-19.81;75.35;100744.88;5002192;28;20057;-59
2024/01/16 11:13:44;;;;;;;13.63;7.82;;;;;;;-20.24;74.78;100740.09;4990483;28;20053;-61
2024/01/16 11:16:16;;;;;;;14.13;7.53;;;;;;;-20.49;74.97;100737.38;5001866;28;20072;-61
2024/01/16 11:18:46;;;;;;;17.75;7.65;;;;;;;-20.72;76.87;100743.84;4989340;28;20776;-60
2024/01/16 11:21:18;;;;;;;8.73;6.75;;;;;;;-20.76;78.18;100739.25;5002026;28;20044;-60
2024/01/16 11:23:49;;;;;;;8.25;5.43;;;;;;;-20.67;80.17;100737.81;5000752;28;20057;-61
2024/01/16 11:26:32;;;;;;;6.30;5.60;;;;;;;-20.48;81.01;100744.13;5004839;28;20063;-60
2024/01/16 11:29:36;;;;;;;12.75;7.53;;;;;;;-20.10;81.54;100739.16;4984541;28;20126;-58
2024/01/16 11:32:09;;;;;;;16.83;8.40;;;;;;;-20.05;81.18;100743.94;4985217;28;20048;-58
2024/01/16 11:34:58;;;;;;;13.88;7.13;;;;;;;-19.96;80.41;100748.16;4991025;28;20057;-60